KFIT

Fitchburg Municipal Airport

Fitchburg, Massachusetts, USA
METAR KFIT 100552Z AUTO 00000KT 10SM CLR M07/M10 A3010 RMK AO2 SLP199 T10671100 11017 21072 58011
Observed Flight Rules
Dec-10 @ 05:52 UTC (37 minutes ago) Visual Flight Rules
Visibility Clouds
10 miles
  • Clear skies
Temperatures Readings
Current -7°C / 19°F
Dewpoint -10°C / 14°F
Humidity 79%
Altimeter 30.1" Hg
Pressure 1019.9 hPa
Elevation 103
METAR KFIT 100552Z AUTO 00000KT 10SM CLR M07/M10 A3010 RMK AO2 SLP199 T10671100 11017 21072 58011
Observed Flight Rules
Dec-10 @ 05:52 UTC
(37 minutes ago)
VFR
Clouds
  • Clear skies
Temperature Dewpoint
-7°C / 19°F -10°C / 14°F
Humidity Altimeter Pressure
79% 30.1" Hg 1019.9 hPa